sensor_id;sensor_type;location;lat;lon;timestamp;temperature;humidity
51853;DHT22;37894;53.172;6.598;2023-05-10T00:01:48;13.70;99.90
51853;DHT22;37894;53.172;6.598;2023-05-10T00:04:14;12.80;99.90
51853;DHT22;37894;53.172;6.598;2023-05-10T00:06:39;12.50;99.90
51853;DHT22;37894;53.172;6.598;2023-05-10T00:09:05;12.90;99.90
51853;DHT22;37894;53.172;6.598;2023-05-10T00:11:31;12.40;99.90
51853;DHT22;37894;53.172;6.598;2023-05-10T00:13:57;12.40;99.90
51853;DHT22;37894;53.172;6.598;2023-05-10T00:16:23;12.70;99.90
51853;DHT22;37894;53.172;6.598;2023-05-10T00:18:48;12.50;99.90
51853;DHT22;37894;53.172;6.598;2023-05-10T00:21:14;13.10;99.90
51853;DHT22;37894;53.172;6.598;2023-05-10T00:23:40;12.50;99.90
51853;DHT22;37894;53.172;6.598;2023-05-10T00:26:06;12.50;99.90
51853;DHT22;37894;53.172;6.598;2023-05-10T00:28:31;12.60;99.90
51853;DHT22;37894;53.172;6.598;2023-05-10T00:30:57;12.70;99.90
51853;DHT22;37894;53.172;6.598;2023-05-10T00:33:23;13.40;99.90
51853;DHT22;37894;53.172;6.598;2023-05-10T00:35:48;12.40;99.90
51853;DHT22;37894;53.172;6.598;2023-05-10T00:38:14;12.00;99.90
51853;DHT22;37894;53.172;6.598;2023-05-10T00:40:40;12.50;99.90
51853;DHT22;37894;53.172;6.598;2023-05-10T00:43:06;12.50;99.90
51853;DHT22;37894;53.172;6.598;2023-05-10T00:45:33;12.20;99.90
51853;DHT22;37894;53.172;6.598;2023-05-10T00:48:01;12.70;99.90
51853;DHT22;37894;53.172;6.598;2023-05-10T00:50:28;12.60;99.90
51853;DHT22;37894;53.172;6.598;2023-05-10T00:52:54;13.10;99.90
51853;DHT22;37894;53.172;6.598;2023-05-10T00:55:20;12.50;99.90
51853;DHT22;37894;53.172;6.598;2023-05-10T00:57:47;11.90;99.90
51853;DHT22;37894;53.172;6.598;2023-05-10T01:00:13;12.00;99.90
51853;DHT22;37894;53.172;6.598;2023-05-10T01:02:45;12.60;99.90
51853;DHT22;37894;53.172;6.598;2023-05-10T01:05:12;12.30;99.90
51853;DHT22;37894;53.172;6.598;2023-05-10T01:07:38;12.60;99.90
51853;DHT22;37894;53.172;6.598;2023-05-10T01:10:06;12.00;99.90
51853;DHT22;37894;53.172;6.598;2023-05-10T01:12:33;12.70;99.90
51853;DHT22;37894;53.172;6.598;2023-05-10T01:15:00;13.20;99.90
51853;DHT22;37894;53.172;6.598;2023-05-10T01:17:27;12.50;99.90
51853;DHT22;37894;53.172;6.598;2023-05-10T01:19:53;12.60;99.90
51853;DHT22;37894;53.172;6.598;2023-05-10T01:35:33;12.60;99.90
51853;DHT22;37894;53.172;6.598;2023-05-10T01:38:49;12.30;99.90
51853;DHT22;37894;53.172;6.598;2023-05-10T01:44:14;12.10;99.90
51853;DHT22;37894;53.172;6.598;2023-05-10T01:46:42;12.50;99.90
51853;DHT22;37894;53.172;6.598;2023-05-10T01:49:17;12.40;99.90
51853;DHT22;37894;53.172;6.598;2023-05-10T01:51:48;12.40;99.90
51853;DHT22;37894;53.172;6.598;2023-05-10T01:54:19;12.20;99.90
51853;DHT22;37894;53.172;6.598;2023-05-10T01:56:48;12.50;99.90
51853;DHT22;37894;53.172;6.598;2023-05-10T01:59:18;12.30;99.90
51853;DHT22;37894;53.172;6.598;2023-05-10T02:01:45;12.40;99.90
51853;DHT22;37894;53.172;6.598;2023-05-10T02:04:15;12.60;99.90
51853;DHT22;37894;53.172;6.598;2023-05-10T02:06:42;11.90;99.90
51853;DHT22;37894;53.172;6.598;2023-05-10T02:09:10;12.20;99.90
51853;DHT22;37894;53.172;6.598;2023-05-10T02:11:41;12.60;99.90
51853;DHT22;37894;53.172;6.598;2023-05-10T02:14:09;12.50;99.90
51853;DHT22;37894;53.172;6.598;2023-05-10T02:16:38;13.00;99.90
51853;DHT22;37894;53.172;6.598;2023-05-10T02:19:05;12.50;99.90
51853;DHT22;37894;53.172;6.598;2023-05-10T02:21:32;12.30;99.90
51853;DHT22;37894;53.172;6.598;2023-05-10T02:23:59;12.30;99.90
51853;DHT22;37894;53.172;6.598;2023-05-10T02:26:26;12.20;99.90
51853;DHT22;37894;53.172;6.598;2023-05-10T02:28:53;12.30;99.90
51853;DHT22;37894;53.172;6.598;2023-05-10T02:31:21;11.60;99.90
51853;DHT22;37894;53.172;6.598;2023-05-10T02:33:47;12.20;99.90
51853;DHT22;37894;53.172;6.598;2023-05-10T02:36:15;12.40;99.90
51853;DHT22;37894;53.172;6.598;2023-05-10T02:38:42;12.30;99.90
51853;DHT22;37894;53.172;6.598;2023-05-10T02:41:09;12.50;99.90
51853;DHT22;37894;53.172;6.598;2023-05-10T02:43:37;11.80;99.90
51853;DHT22;37894;53.172;6.598;2023-05-10T02:46:05;12.50;99.90
51853;DHT22;37894;53.172;6.598;2023-05-10T02:48:30;12.30;99.90
51853;DHT22;37894;53.172;6.598;2023-05-10T02:51:02;12.50;99.90
51853;DHT22;37894;53.172;6.598;2023-05-10T02:53:30;12.30;99.90
51853;DHT22;37894;53.172;6.598;2023-05-10T02:55:59;12.30;99.90
51853;DHT22;37894;53.172;6.598;2023-05-10T02:58:26;12.60;99.90
51853;DHT22;37894;53.172;6.598;2023-05-10T03:00:52;12.40;99.90
51853;DHT22;37894;53.172;6.598;2023-05-10T03:03:18;12.20;99.90
51853;DHT22;37894;53.172;6.598;2023-05-10T03:05:45;12.60;99.90
51853;DHT22;37894;53.172;6.598;2023-05-10T03:08:11;12.40;99.90
51853;DHT22;37894;53.172;6.598;2023-05-10T03:10:44;12.40;99.90
51853;DHT22;37894;53.172;6.598;2023-05-10T03:13:29;12.60;99.90
51853;DHT22;37894;53.172;6.598;2023-05-10T03:16:16;12.20;99.90
51853;DHT22;37894;53.172;6.598;2023-05-10T03:18:48;12.50;99.90
51853;DHT22;37894;53.172;6.598;2023-05-10T03:21:18;12.40;99.90
51853;DHT22;37894;53.172;6.598;2023-05-10T03:23:50;12.10;99.90
51853;DHT22;37894;53.172;6.598;2023-05-10T03:26:26;12.50;99.90
51853;DHT22;37894;53.172;6.598;2023-05-10T03:28:53;11.40;99.90
51853;DHT22;37894;53.172;6.598;2023-05-10T03:33:52;12.20;99.90
51853;DHT22;37894;53.172;6.598;2023-05-10T03:36:19;11.80;99.90
51853;DHT22;37894;53.172;6.598;2023-05-10T03:38:44;12.30;99.90
51853;DHT22;37894;53.172;6.598;2023-05-10T03:41:10;12.40;99.90
51853;DHT22;37894;53.172;6.598;2023-05-10T03:43:36;11.80;99.90
51853;DHT22;37894;53.172;6.598;2023-05-10T03:46:05;12.20;99.90
51853;DHT22;37894;53.172;6.598;2023-05-10T03:48:34;12.00;99.90
51853;DHT22;37894;53.172;6.598;2023-05-10T03:51:00;12.40;99.90
51853;DHT22;37894;53.172;6.598;2023-05-10T03:53:26;12.10;99.90
51853;DHT22;37894;53.172;6.598;2023-05-10T03:55:52;12.00;99.90
51853;DHT22;37894;53.172;6.598;2023-05-10T03:58:18;12.10;99.90
51853;DHT22;37894;53.172;6.598;2023-05-10T04:00:44;12.00;99.90
51853;DHT22;37894;53.172;6.598;2023-05-10T04:03:14;12.00;99.90
51853;DHT22;37894;53.172;6.598;2023-05-10T04:08:06;12.30;99.90
51853;DHT22;37894;53.172;6.598;2023-05-10T04:10:32;11.90;99.90
51853;DHT22;37894;53.172;6.598;2023-05-10T04:12:58;13.20;99.90
51853;DHT22;37894;53.172;6.598;2023-05-10T04:15:24;12.40;99.90
51853;DHT22;37894;53.172;6.598;2023-05-10T04:17:49;12.30;99.90
51853;DHT22;37894;53.172;6.598;2023-05-10T04:22:42;12.20;99.90
51853;DHT22;37894;53.172;6.598;2023-05-10T04:25:08;11.80;99.90
51853;DHT22;37894;53.172;6.598;2023-05-10T04:27:33;11.80;99.90
51853;DHT22;37894;53.172;6.598;2023-05-10T04:32:25;11.80;99.90
51853;DHT22;37894;53.172;6.598;2023-05-10T04:34:51;12.00;99.90
51853;DHT22;37894;53.172;6.598;2023-05-10T04:37:17;12.10;99.90
51853;DHT22;37894;53.172;6.598;2023-05-10T04:39:43;12.20;99.90
51853;DHT22;37894;53.172;6.598;2023-05-10T04:42:09;12.10;99.90
51853;DHT22;37894;53.172;6.598;2023-05-10T04:44:35;12.40;99.90
51853;DHT22;37894;53.172;6.598;2023-05-10T04:47:01;11.60;99.90
51853;DHT22;37894;53.172;6.598;2023-05-10T04:54:21;12.40;99.90
51853;DHT22;37894;53.172;6.598;2023-05-10T04:56:46;12.10;99.90
51853;DHT22;37894;53.172;6.598;2023-05-10T04:59:12;11.40;99.90
51853;DHT22;37894;53.172;6.598;2023-05-10T05:01:38;11.80;99.90
51853;DHT22;37894;53.172;6.598;2023-05-10T05:04:04;12.80;99.90
51853;DHT22;37894;53.172;6.598;2023-05-10T05:06:30;12.00;99.90
51853;DHT22;37894;53.172;6.598;2023-05-10T05:08:56;12.40;99.90
51853;DHT22;37894;53.172;6.598;2023-05-10T05:13:48;13.00;99.90
51853;DHT22;37894;53.172;6.598;2023-05-10T05:16:13;13.10;99.90
51853;DHT22;37894;53.172;6.598;2023-05-10T05:18:39;12.00;99.90
51853;DHT22;37894;53.172;6.598;2023-05-10T05:21:18;11.90;99.90
51853;DHT22;37894;53.172;6.598;2023-05-10T05:23:44;12.10;99.90
51853;DHT22;37894;53.172;6.598;2023-05-10T05:26:10;12.40;99.90
51853;DHT22;37894;53.172;6.598;2023-05-10T05:28:36;12.20;99.90
51853;DHT22;37894;53.172;6.598;2023-05-10T05:31:06;12.00;99.90
51853;DHT22;37894;53.172;6.598;2023-05-10T05:33:35;12.20;99.90
51853;DHT22;37894;53.172;6.598;2023-05-10T05:36:01;12.40;99.90
51853;DHT22;37894;53.172;6.598;2023-05-10T05:38:28;12.60;99.90
51853;DHT22;37894;53.172;6.598;2023-05-10T05:40:53;12.40;99.90
51853;DHT22;37894;53.172;6.598;2023-05-10T05:43:19;12.20;99.90
51853;DHT22;37894;53.172;6.598;2023-05-10T05:45:45;12.30;99.90
51853;DHT22;37894;53.172;6.598;2023-05-10T05:48:10;11.40;99.90
51853;DHT22;37894;53.172;6.598;2023-05-10T05:50:36;12.30;99.90
51853;DHT22;37894;53.172;6.598;2023-05-10T05:53:02;13.00;99.90
51853;DHT22;37894;53.172;6.598;2023-05-10T05:55:28;12.30;99.90
51853;DHT22;37894;53.172;6.598;2023-05-10T05:57:55;12.40;99.90
51853;DHT22;37894;53.172;6.598;2023-05-10T06:00:20;12.50;99.90
51853;DHT22;37894;53.172;6.598;2023-05-10T06:02:47;12.20;99.90
51853;DHT22;37894;53.172;6.598;2023-05-10T06:05:13;11.60;99.90
51853;DHT22;37894;53.172;6.598;2023-05-10T06:07:39;12.40;99.90
51853;DHT22;37894;53.172;6.598;2023-05-10T06:10:08;12.10;99.90
51853;DHT22;37894;53.172;6.598;2023-05-10T06:12:34;11.50;99.90
51853;DHT22;37894;53.172;6.598;2023-05-10T06:15:00;12.60;99.90
51853;DHT22;37894;53.172;6.598;2023-05-10T06:17:25;12.20;99.90
51853;DHT22;37894;53.172;6.598;2023-05-10T06:19:51;12.40;99.90
51853;DHT22;37894;53.172;6.598;2023-05-10T06:22:17;12.40;99.90
51853;DHT22;37894;53.172;6.598;2023-05-10T06:24:43;12.40;99.90
51853;DHT22;37894;53.172;6.598;2023-05-10T06:27:09;13.10;99.90
51853;DHT22;37894;53.172;6.598;2023-05-10T06:29:34;12.20;99.90
51853;DHT22;37894;53.172;6.598;2023-05-10T06:32:00;12.60;99.90
51853;DHT22;37894;53.172;6.598;2023-05-10T06:34:26;12.10;99.90
51853;DHT22;37894;53.172;6.598;2023-05-10T06:36:52;12.40;99.90
51853;DHT22;37894;53.172;6.598;2023-05-10T06:39:18;12.20;99.90
51853;DHT22;37894;53.172;6.598;2023-05-10T06:41:44;12.10;99.90
51853;DHT22;37894;53.172;6.598;2023-05-10T06:44:09;12.40;99.90
51853;DHT22;37894;53.172;6.598;2023-05-10T06:46:35;12.30;99.90
51853;DHT22;37894;53.172;6.598;2023-05-10T06:49:01;12.40;99.90
51853;DHT22;37894;53.172;6.598;2023-05-10T06:51:26;11.80;99.90
51853;DHT22;37894;53.172;6.598;2023-05-10T06:53:52;12.30;99.90
51853;DHT22;37894;53.172;6.598;2023-05-10T06:56:18;12.60;99.90
51853;DHT22;37894;53.172;6.598;2023-05-10T06:58:47;12.60;99.90
51853;DHT22;37894;53.172;6.598;2023-05-10T07:01:13;12.00;99.90
51853;DHT22;37894;53.172;6.598;2023-05-10T07:06:05;12.50;99.90
51853;DHT22;37894;53.172;6.598;2023-05-10T07:08:35;12.10;99.90
51853;DHT22;37894;53.172;6.598;2023-05-10T07:11:02;12.70;99.90
51853;DHT22;37894;53.172;6.598;2023-05-10T07:13:29;12.60;99.90
51853;DHT22;37894;53.172;6.598;2023-05-10T07:15:55;12.30;99.90
51853;DHT22;37894;53.172;6.598;2023-05-10T07:18:21;12.40;99.90
51853;DHT22;37894;53.172;6.598;2023-05-10T07:20:47;11.70;99.90
51853;DHT22;37894;53.172;6.598;2023-05-10T07:23:12;12.60;99.90
51853;DHT22;37894;53.172;6.598;2023-05-10T07:25:38;12.40;99.90
51853;DHT22;37894;53.172;6.598;2023-05-10T07:28:04;12.10;99.90
51853;DHT22;37894;53.172;6.598;2023-05-10T07:30:30;11.60;99.90
51853;DHT22;37894;53.172;6.598;2023-05-10T07:32:56;12.80;99.90
51853;DHT22;37894;53.172;6.598;2023-05-10T07:37:47;12.70;99.90
51853;DHT22;37894;53.172;6.598;2023-05-10T07:40:13;12.90;99.90
51853;DHT22;37894;53.172;6.598;2023-05-10T07:42:39;13.00;99.90
51853;DHT22;37894;53.172;6.598;2023-05-10T07:45:05;12.30;99.90
51853;DHT22;37894;53.172;6.598;2023-05-10T07:49:57;12.20;99.90
51853;DHT22;37894;53.172;6.598;2023-05-10T07:52:22;12.50;99.90
51853;DHT22;37894;53.172;6.598;2023-05-10T07:54:48;13.00;99.90
51853;DHT22;37894;53.172;6.598;2023-05-10T07:57:14;12.90;99.90
51853;DHT22;37894;53.172;6.598;2023-05-10T07:59:42;13.20;99.90
51853;DHT22;37894;53.172;6.598;2023-05-10T08:02:09;13.00;99.90
51853;DHT22;37894;53.172;6.598;2023-05-10T08:04:35;12.70;99.90
51853;DHT22;37894;53.172;6.598;2023-05-10T08:07:00;12.00;99.90
51853;DHT22;37894;53.172;6.598;2023-05-10T08:09:26;12.60;99.90
51853;DHT22;37894;53.172;6.598;2023-05-10T08:11:52;13.60;99.90
51853;DHT22;37894;53.172;6.598;2023-05-10T08:14:17;12.60;99.90
51853;DHT22;37894;53.172;6.598;2023-05-10T08:16:43;12.30;99.90
51853;DHT22;37894;53.172;6.598;2023-05-10T08:19:09;12.50;99.90
51853;DHT22;37894;53.172;6.598;2023-05-10T08:21:35;12.50;99.90
51853;DHT22;37894;53.172;6.598;2023-05-10T08:26:27;12.80;99.90
51853;DHT22;37894;53.172;6.598;2023-05-10T08:28:53;13.70;99.90
51853;DHT22;37894;53.172;6.598;2023-05-10T08:31:19;12.90;99.90
51853;DHT22;37894;53.172;6.598;2023-05-10T08:33:45;12.80;99.90
51853;DHT22;37894;53.172;6.598;2023-05-10T08:43:31;13.40;99.90
51853;DHT22;37894;53.172;6.598;2023-05-10T08:46:00;13.80;99.90
51853;DHT22;37894;53.172;6.598;2023-05-10T08:48:29;12.00;99.90
51853;DHT22;37894;53.172;6.598;2023-05-10T08:50:57;12.90;99.90
51853;DHT22;37894;53.172;6.598;2023-05-10T08:53:24;12.60;99.90
51853;DHT22;37894;53.172;6.598;2023-05-10T08:55:52;13.00;99.90
51853;DHT22;37894;53.172;6.598;2023-05-10T08:58:19;12.90;99.90
51853;DHT22;37894;53.172;6.598;2023-05-10T09:00:48;13.10;99.90
51853;DHT22;37894;53.172;6.598;2023-05-10T09:03:14;13.00;99.90
51853;DHT22;37894;53.172;6.598;2023-05-10T09:05:40;12.90;99.90
51853;DHT22;37894;53.172;6.598;2023-05-10T09:08:08;13.30;99.90
51853;DHT22;37894;53.172;6.598;2023-05-10T09:10:34;13.20;99.90
51853;DHT22;37894;53.172;6.598;2023-05-10T09:13:00;13.10;99.90
51853;DHT22;37894;53.172;6.598;2023-05-10T09:15:27;13.30;99.90
51853;DHT22;37894;53.172;6.598;2023-05-10T09:17:53;13.40;99.90
51853;DHT22;37894;53.172;6.598;2023-05-10T09:20:19;14.10;99.90
51853;DHT22;37894;53.172;6.598;2023-05-10T09:22:46;12.50;99.90
51853;DHT22;37894;53.172;6.598;2023-05-10T09:25:13;13.30;99.90
51853;DHT22;37894;53.172;6.598;2023-05-10T09:27:40;13.50;99.90
51853;DHT22;37894;53.172;6.598;2023-05-10T09:30:07;13.50;99.90
51853;DHT22;37894;53.172;6.598;2023-05-10T09:32:44;13.40;99.90
51853;DHT22;37894;53.172;6.598;2023-05-10T09:35:15;13.00;99.90
51853;DHT22;37894;53.172;6.598;2023-05-10T09:37:43;13.50;99.90
51853;DHT22;37894;53.172;6.598;2023-05-10T09:40:17;12.90;99.90
51853;DHT22;37894;53.172;6.598;2023-05-10T09:43:01;14.00;99.90
51853;DHT22;37894;53.172;6.598;2023-05-10T09:45:28;13.70;99.90
51853;DHT22;37894;53.172;6.598;2023-05-10T09:47:54;13.90;99.90
51853;DHT22;37894;53.172;6.598;2023-05-10T09:50:20;13.60;99.90
51853;DHT22;37894;53.172;6.598;2023-05-10T09:52:49;13.80;99.90
51853;DHT22;37894;53.172;6.598;2023-05-10T09:55:17;14.00;99.90
51853;DHT22;37894;53.172;6.598;2023-05-10T09:57:43;13.90;99.90
51853;DHT22;37894;53.172;6.598;2023-05-10T10:00:09;14.30;99.90
51853;DHT22;37894;53.172;6.598;2023-05-10T10:02:35;14.20;99.90
51853;DHT22;37894;53.172;6.598;2023-05-10T10:05:02;14.10;99.90
51853;DHT22;37894;53.172;6.598;2023-05-10T10:07:29;13.80;99.90
51853;DHT22;37894;53.172;6.598;2023-05-10T10:09:55;14.00;99.90
51853;DHT22;37894;53.172;6.598;2023-05-10T10:12:20;13.70;99.90
51853;DHT22;37894;53.172;6.598;2023-05-10T10:14:49;14.10;99.90
51853;DHT22;37894;53.172;6.598;2023-05-10T10:17:17;14.10;99.90
51853;DHT22;37894;53.172;6.598;2023-05-10T10:19:43;14.20;99.90
51853;DHT22;37894;53.172;6.598;2023-05-10T10:22:10;14.30;99.90
51853;DHT22;37894;53.172;6.598;2023-05-10T10:24:40;14.30;99.90
51853;DHT22;37894;53.172;6.598;2023-05-10T10:33:10;14.10;99.90
51853;DHT22;37894;53.172;6.598;2023-05-10T10:35:39;13.80;99.90
51853;DHT22;37894;53.172;6.598;2023-05-10T10:38:07;14.30;99.90
51853;DHT22;37894;53.172;6.598;2023-05-10T10:40:34;14.10;99.90
51853;DHT22;37894;53.172;6.598;2023-05-10T10:43:21;14.40;99.90
51853;DHT22;37894;53.172;6.598;2023-05-10T10:46:13;14.30;99.90
51853;DHT22;37894;53.172;6.598;2023-05-10T10:48:40;14.70;99.90
51853;DHT22;37894;53.172;6.598;2023-05-10T10:51:06;14.60;99.90
51853;DHT22;37894;53.172;6.598;2023-05-10T10:53:32;14.80;99.90
51853;DHT22;37894;53.172;6.598;2023-05-10T10:56:09;13.70;99.90
51853;DHT22;37894;53.172;6.598;2023-05-10T10:58:39;14.90;99.90
51853;DHT22;37894;53.172;6.598;2023-05-10T11:01:14;14.70;99.90
51853;DHT22;37894;53.172;6.598;2023-05-10T11:03:40;14.70;99.90
51853;DHT22;37894;53.172;6.598;2023-05-10T11:06:06;14.70;99.90
51853;DHT22;37894;53.172;6.598;2023-05-10T11:08:41;15.70;99.90
51853;DHT22;37894;53.172;6.598;2023-05-10T11:11:07;14.80;99.90
51853;DHT22;37894;53.172;6.598;2023-05-10T11:16:23;15.10;99.90
51853;DHT22;37894;53.172;6.598;2023-05-10T11:18:57;15.30;99.90
51853;DHT22;37894;53.172;6.598;2023-05-10T11:21:23;15.60;99.90
51853;DHT22;37894;53.172;6.598;2023-05-10T11:23:57;15.60;99.90
51853;DHT22;37894;53.172;6.598;2023-05-10T11:26:31;15.60;99.90
51853;DHT22;37894;53.172;6.598;2023-05-10T11:28:57;15.10;99.90
51853;DHT22;37894;53.172;6.598;2023-05-10T11:31:28;15.20;99.90
51853;DHT22;37894;53.172;6.598;2023-05-10T11:34:00;15.10;99.90
51853;DHT22;37894;53.172;6.598;2023-05-10T11:36:36;15.40;99.90
51853;DHT22;37894;53.172;6.598;2023-05-10T11:39:03;15.00;99.90
51853;DHT22;37894;53.172;6.598;2023-05-10T11:41:30;15.10;99.90
51853;DHT22;37894;53.172;6.598;2023-05-10T11:43:56;15.20;99.90
51853;DHT22;37894;53.172;6.598;2023-05-10T11:46:24;14.90;99.90
51853;DHT22;37894;53.172;6.598;2023-05-10T11:48:53;15.30;99.90
51853;DHT22;37894;53.172;6.598;2023-05-10T11:51:23;15.00;99.90
51853;DHT22;37894;53.172;6.598;2023-05-10T11:53:54;14.80;99.90
51853;DHT22;37894;53.172;6.598;2023-05-10T11:56:20;14.80;99.90
51853;DHT22;37894;53.172;6.598;2023-05-10T11:58:55;14.90;99.90
51853;DHT22;37894;53.172;6.598;2023-05-10T12:01:22;14.90;99.90
51853;DHT22;37894;53.172;6.598;2023-05-10T12:03:49;14.60;99.90
51853;DHT22;37894;53.172;6.598;2023-05-10T12:06:16;14.70;99.90
51853;DHT22;37894;53.172;6.598;2023-05-10T12:08:47;14.70;99.90
51853;DHT22;37894;53.172;6.598;2023-05-10T12:11:13;14.50;99.90
51853;DHT22;37894;53.172;6.598;2023-05-10T12:13:42;14.90;99.90
51853;DHT22;37894;53.172;6.598;2023-05-10T12:16:22;14.70;99.90
51853;DHT22;37894;53.172;6.598;2023-05-10T12:18:49;15.10;99.90
51853;DHT22;37894;53.172;6.598;2023-05-10T12:21:16;16.10;99.90
51853;DHT22;37894;53.172;6.598;2023-05-10T12:23:42;14.90;99.90
51853;DHT22;37894;53.172;6.598;2023-05-10T12:26:10;14.90;99.90
51853;DHT22;37894;53.172;6.598;2023-05-10T12:28:37;14.90;99.90
51853;DHT22;37894;53.172;6.598;2023-05-10T12:31:03;15.00;99.90
51853;DHT22;37894;53.172;6.598;2023-05-10T12:33:43;14.90;99.90
51853;DHT22;37894;53.172;6.598;2023-05-10T12:36:11;15.00;99.90
51853;DHT22;37894;53.172;6.598;2023-05-10T12:38:39;15.20;99.90
51853;DHT22;37894;53.172;6.598;2023-05-10T12:41:16;15.10;99.90
51853;DHT22;37894;53.172;6.598;2023-05-10T12:43:42;15.10;99.90
51853;DHT22;37894;53.172;6.598;2023-05-10T12:46:10;15.10;99.90
51853;DHT22;37894;53.172;6.598;2023-05-10T12:48:37;15.10;99.90
51853;DHT22;37894;53.172;6.598;2023-05-10T12:51:04;15.20;99.90
51853;DHT22;37894;53.172;6.598;2023-05-10T12:53:30;15.20;99.90
51853;DHT22;37894;53.172;6.598;2023-05-10T12:55:56;15.30;99.90
51853;DHT22;37894;53.172;6.598;2023-05-10T12:58:22;15.50;99.90
51853;DHT22;37894;53.172;6.598;2023-05-10T13:00:48;15.30;99.90
51853;DHT22;37894;53.172;6.598;2023-05-10T13:03:14;15.60;99.90
51853;DHT22;37894;53.172;6.598;2023-05-10T13:05:41;15.70;99.90
51853;DHT22;37894;53.172;6.598;2023-05-10T13:08:06;15.30;99.90
51853;DHT22;37894;53.172;6.598;2023-05-10T13:10:32;15.30;99.90
51853;DHT22;37894;53.172;6.598;2023-05-10T13:12:58;15.10;99.90
51853;DHT22;37894;53.172;6.598;2023-05-10T13:15:25;15.30;99.90
51853;DHT22;37894;53.172;6.598;2023-05-10T13:17:51;15.50;99.90
51853;DHT22;37894;53.172;6.598;2023-05-10T13:20:16;15.20;99.90
51853;DHT22;37894;53.172;6.598;2023-05-10T13:22:45;15.10;99.90
51853;DHT22;37894;53.172;6.598;2023-05-10T13:25:11;15.10;99.90
51853;DHT22;37894;53.172;6.598;2023-05-10T13:27:40;15.00;99.90
51853;DHT22;37894;53.172;6.598;2023-05-10T13:30:07;15.10;99.90
51853;DHT22;37894;53.172;6.598;2023-05-10T13:32:33;15.10;99.90
51853;DHT22;37894;53.172;6.598;2023-05-10T13:35:00;14.60;99.90
51853;DHT22;37894;53.172;6.598;2023-05-10T13:37:25;15.00;99.90
51853;DHT22;37894;53.172;6.598;2023-05-10T13:39:51;15.10;99.90
51853;DHT22;37894;53.172;6.598;2023-05-10T13:42:17;15.00;99.90
51853;DHT22;37894;53.172;6.598;2023-05-10T13:44:43;14.70;99.90
51853;DHT22;37894;53.172;6.598;2023-05-10T13:47:09;15.00;99.90
51853;DHT22;37894;53.172;6.598;2023-05-10T13:49:35;15.70;99.90
51853;DHT22;37894;53.172;6.598;2023-05-10T13:52:01;15.00;99.90
51853;DHT22;37894;53.172;6.598;2023-05-10T13:54:33;15.20;99.90
51853;DHT22;37894;53.172;6.598;2023-05-10T13:56:59;14.90;99.90
51853;DHT22;37894;53.172;6.598;2023-05-10T13:59:25;14.90;99.90
51853;DHT22;37894;53.172;6.598;2023-05-10T14:01:51;14.80;99.90
51853;DHT22;37894;53.172;6.598;2023-05-10T14:04:16;14.70;99.90
51853;DHT22;37894;53.172;6.598;2023-05-10T14:06:42;14.90;99.90
51853;DHT22;37894;53.172;6.598;2023-05-10T14:09:08;14.80;99.90
51853;DHT22;37894;53.172;6.598;2023-05-10T14:11:34;14.90;99.90
51853;DHT22;37894;53.172;6.598;2023-05-10T14:13:59;14.90;99.90
51853;DHT22;37894;53.172;6.598;2023-05-10T14:16:25;14.90;99.90
51853;DHT22;37894;53.172;6.598;2023-05-10T14:18:52;14.90;99.90
51853;DHT22;37894;53.172;6.598;2023-05-10T14:21:18;14.70;99.90
51853;DHT22;37894;53.172;6.598;2023-05-10T14:23:43;14.90;99.90
51853;DHT22;37894;53.172;6.598;2023-05-10T14:26:09;15.10;99.90
51853;DHT22;37894;53.172;6.598;2023-05-10T14:28:35;15.00;99.90
51853;DHT22;37894;53.172;6.598;2023-05-10T14:31:01;15.00;99.90
51853;DHT22;37894;53.172;6.598;2023-05-10T14:33:26;15.20;99.90
51853;DHT22;37894;53.172;6.598;2023-05-10T14:35:53;14.70;99.90
51853;DHT22;37894;53.172;6.598;2023-05-10T14:38:20;14.90;99.90
51853;DHT22;37894;53.172;6.598;2023-05-10T14:40:45;15.00;99.90
51853;DHT22;37894;53.172;6.598;2023-05-10T14:43:11;15.00;99.90
51853;DHT22;37894;53.172;6.598;2023-05-10T14:45:37;15.60;99.90
51853;DHT22;37894;53.172;6.598;2023-05-10T14:48:03;15.10;99.90
51853;DHT22;37894;53.172;6.598;2023-05-10T14:50:30;15.50;99.90
51853;DHT22;37894;53.172;6.598;2023-05-10T14:52:57;15.10;99.90
51853;DHT22;37894;53.172;6.598;2023-05-10T14:55:23;15.40;99.90
51853;DHT22;37894;53.172;6.598;2023-05-10T14:57:48;15.50;99.90
51853;DHT22;37894;53.172;6.598;2023-05-10T15:00:16;15.50;99.90
51853;DHT22;37894;53.172;6.598;2023-05-10T15:02:42;15.60;99.90
51853;DHT22;37894;53.172;6.598;2023-05-10T15:05:08;15.30;99.90
51853;DHT22;37894;53.172;6.598;2023-05-10T15:07:34;15.70;99.90
51853;DHT22;37894;53.172;6.598;2023-05-10T15:09:59;15.80;99.90
51853;DHT22;37894;53.172;6.598;2023-05-10T15:12:25;15.50;99.90
51853;DHT22;37894;53.172;6.598;2023-05-10T15:14:51;15.90;99.90
51853;DHT22;37894;53.172;6.598;2023-05-10T15:17:17;15.90;99.90
51853;DHT22;37894;53.172;6.598;2023-05-10T15:19:43;16.00;99.90
51853;DHT22;37894;53.172;6.598;2023-05-10T15:22:08;15.90;99.90
51853;DHT22;37894;53.172;6.598;2023-05-10T15:24:34;15.80;99.90
51853;DHT22;37894;53.172;6.598;2023-05-10T15:27:00;16.00;99.90
51853;DHT22;37894;53.172;6.598;2023-05-10T15:29:26;16.10;99.90
51853;DHT22;37894;53.172;6.598;2023-05-10T15:31:52;16.90;99.90
51853;DHT22;37894;53.172;6.598;2023-05-10T15:34:18;16.00;99.90
51853;DHT22;37894;53.172;6.598;2023-05-10T15:36:44;16.00;99.90
51853;DHT22;37894;53.172;6.598;2023-05-10T15:39:11;15.90;99.90
51853;DHT22;37894;53.172;6.598;2023-05-10T15:41:37;15.90;99.90
51853;DHT22;37894;53.172;6.598;2023-05-10T15:44:03;15.90;99.90
51853;DHT22;37894;53.172;6.598;2023-05-10T15:46:29;15.70;99.90
51853;DHT22;37894;53.172;6.598;2023-05-10T15:48:56;15.70;99.90
51853;DHT22;37894;53.172;6.598;2023-05-10T15:51:22;15.60;99.90
51853;DHT22;37894;53.172;6.598;2023-05-10T15:53:48;15.70;99.90
51853;DHT22;37894;53.172;6.598;2023-05-10T15:56:13;15.60;99.90
51853;DHT22;37894;53.172;6.598;2023-05-10T15:58:40;15.70;99.90
51853;DHT22;37894;53.172;6.598;2023-05-10T16:01:06;15.60;99.90
51853;DHT22;37894;53.172;6.598;2023-05-10T16:03:33;15.50;99.90
51853;DHT22;37894;53.172;6.598;2023-05-10T16:05:59;15.60;99.90
51853;DHT22;37894;53.172;6.598;2023-05-10T16:08:26;15.50;99.90
51853;DHT22;37894;53.172;6.598;2023-05-10T16:10:52;15.50;99.90
51853;DHT22;37894;53.172;6.598;2023-05-10T16:13:18;19.40;99.90
51853;DHT22;37894;53.172;6.598;2023-05-10T16:15:44;15.70;99.90
51853;DHT22;37894;53.172;6.598;2023-05-10T16:18:10;15.20;99.90
51853;DHT22;37894;53.172;6.598;2023-05-10T16:20:36;15.10;99.90
51853;DHT22;37894;53.172;6.598;2023-05-10T16:23:04;15.20;99.90
51853;DHT22;37894;53.172;6.598;2023-05-10T16:25:31;15.20;99.90
51853;DHT22;37894;53.172;6.598;2023-05-10T16:27:58;15.20;99.90
51853;DHT22;37894;53.172;6.598;2023-05-10T16:30:23;15.80;99.90